Time;durP1;ratioP1;P1;durP2;ratioP2;P2;SDS_P1;SDS_P2;PMS_P1;PMS_P2;Temp;Humidity;BMP_temperature;BMP_pressure;BME280_temperature;BME280_humidity;BME280_pressure;Samples;Min_cycle;Max_cycle;Signal;HPM_P1;HPM_P2
2022/05/29 00:00:42;;;;;;;6.18;2.97;;;;;;;8.91;100.00;99321.72;5034228;28;20026;-77
2022/05/29 00:03:07;;;;;;;10.63;3.38;;;;;;;8.91;100.00;99330.34;5034170;28;20036;-77
2022/05/29 00:05:36;;;;;;;6.68;2.97;;;;;;;8.85;100.00;99321.97;5034046;28;20036;-77
2022/05/29 00:08:02;;;;;;;6.53;2.70;;;;;;;8.86;100.00;99321.09;5033871;28;20087;-77
2022/05/29 00:10:28;;;;;;;7.32;3.13;;;;;;;8.79;100.00;99311.88;5016063;28;20423;-77
2022/05/29 00:12:53;;;;;;;7.55;2.90;;;;;;;8.78;100.00;99318.84;5015891;28;20026;-77
2022/05/29 00:15:19;;;;;;;5.22;2.80;;;;;;;8.66;100.00;99301.19;5015833;28;20037;-77
2022/05/29 00:17:44;;;;;;;7.78;3.38;;;;;;;8.71;100.00;99318.25;5033785;28;20029;-77
2022/05/29 00:20:10;;;;;;;18.88;3.78;;;;;;;8.69;100.00;99319.25;5033422;28;20455;-77
2022/05/29 00:22:36;;;;;;;5.28;3.28;;;;;;;8.58;100.00;99308.47;5015877;28;20025;-78
2022/05/29 00:25:06;;;;;;;7.95;3.47;;;;;;;8.61;100.00;99319.59;5033571;28;20717;-78
2022/05/29 00:27:32;;;;;;;8.32;3.72;;;;;;;8.58;100.00;99311.91;5032581;28;20479;-77
2022/05/29 00:29:57;;;;;;;7.55;3.38;;;;;;;8.54;100.00;99318.16;5033883;28;20021;-77
2022/05/29 00:32:23;;;;;;;6.00;3.63;;;;;;;8.52;100.00;99313.97;5033228;28;20251;-77
2022/05/29 00:34:48;;;;;;;7.60;4.10;;;;;;;8.45;100.00;99311.59;5033466;28;20029;-77
2022/05/29 00:37:13;;;;;;;13.00;4.32;;;;;;;8.37;100.00;99300.72;5015530;28;20434;-77
2022/05/29 00:39:40;;;;;;;7.75;3.85;;;;;;;8.42;100.00;99313.50;5015599;28;20026;-77
2022/05/29 00:42:08;;;;;;;7.80;3.70;;;;;;;8.32;100.00;99294.00;5032932;28;20474;-78
2022/05/29 00:44:34;;;;;;;8.27;4.20;;;;;;;8.33;100.00;99296.53;5033351;28;20422;-77
2022/05/29 00:47:11;;;;;;;9.50;3.97;;;;;;;8.32;100.00;99297.44;5033107;28;20057;-77
2022/05/29 00:49:38;;;;;;;9.52;3.92;;;;;;;8.33;100.00;99296.53;5033064;28;20478;-77
2022/05/29 00:52:09;;;;;;;14.77;4.90;;;;;;;8.36;100.00;99311.13;5033020;28;20037;-77
2022/05/29 00:54:45;;;;;;;9.43;4.05;;;;;;;8.25;100.00;99294.25;5032867;28;20029;-78
2022/05/29 00:57:14;;;;;;;6.40;3.70;;;;;;;8.22;100.00;99297.00;5032632;28;20475;-77
2022/05/29 00:59:40;;;;;;;6.15;3.60;;;;;;;8.21;100.00;99302.25;5033025;28;20091;-77
2022/05/29 01:02:06;;;;;;;12.07;4.40;;;;;;;8.23;100.00;99300.44;5015069;28;20053;-78
2022/05/29 01:04:36;;;;;;;8.88;3.90;;;;;;;8.16;100.00;99292.06;5032780;28;20025;-78
2022/05/29 01:07:06;;;;;;;;;;;;;;;8.20;100.00;99296.22;5015295;28;20025;-77
2022/05/29 01:09:31;;;;;;;10.80;4.03;;;;;;;8.14;100.00;99293.91;5032650;28;19916;-77
2022/05/29 01:12:02;;;;;;;5.05;3.38;;;;;;;8.07;100.00;99283.84;5032449;28;20075;-77
2022/05/29 01:14:46;;;;;;;8.80;3.63;;;;;;;8.07;100.00;99286.44;5032465;28;20034;-77
2022/05/29 01:17:29;;;;;;;3.80;3.13;;;;;;;8.08;100.00;99282.91;5032398;28;20360;-77
2022/05/29 01:20:00;;;;;;;6.72;3.25;;;;;;;8.06;100.00;99287.34;5014853;28;20033;-77
2022/05/29 01:23:00;;;;;;;7.03;3.75;;;;;;;7.97;100.00;99285.97;5014644;28;20033;-77
2022/05/29 01:25:28;;;;;;;7.88;3.55;;;;;;;7.98;100.00;99288.50;5032289;28;20420;-77
2022/05/29 01:28:09;;;;;;;8.48;3.63;;;;;;;7.99;100.00;99295.38;5014457;28;20040;-77
2022/05/29 01:30:42;;;;;;;11.65;3.50;;;;;;;7.95;100.00;99287.78;5032392;28;20091;-77
2022/05/29 01:33:38;;;;;;;6.47;3.30;;;;;;;7.96;100.00;99290.34;5032272;28;20036;-78
2022/05/29 01:36:09;;;;;;;5.88;2.95;;;;;;;7.93;100.00;99292.19;5009871;28;20518;-77
2022/05/29 01:38:43;;;;;;;6.78;3.22;;;;;;;7.84;100.00;99284.81;5010051;28;20045;-77
2022/05/29 01:41:09;;;;;;;5.72;2.90;;;;;;;7.87;100.00;99295.88;4993223;28;20083;-77
2022/05/29 01:43:43;;;;;;;9.52;3.75;;;;;;;7.82;100.00;99287.44;5010072;28;20029;-77
2022/05/29 01:46:15;;;;;;;8.52;3.65;;;;;;;7.81;100.00;99296.13;5009833;28;20046;-77
2022/05/29 01:49:07;;;;;;;4.78;3.17;;;;;;;7.76;100.00;99295.50;5009801;28;20383;-77
2022/05/29 01:51:41;;;;;;;8.27;3.85;;;;;;;7.67;100.00;99283.75;5009642;28;20042;-77
2022/05/29 01:54:17;;;;;;;9.13;3.47;;;;;;;7.59;100.00;99296.16;5009889;28;20523;-77
2022/05/29 01:57:05;;;;;;;7.13;3.53;;;;;;;7.48;100.00;99278.44;5009631;28;20042;-77
2022/05/29 01:59:37;;;;;;;7.85;3.53;;;;;;;7.49;100.00;99290.47;5009843;28;20033;-77
2022/05/29 02:02:17;;;;;;;6.28;3.47;;;;;;;7.44;100.00;99289.84;4993166;28;20135;-77
2022/05/29 02:04:48;;;;;;;6.17;2.97;;;;;;;7.32;100.00;99273.94;5009811;28;20037;-77
2022/05/29 02:10:09;;;;;;;7.50;3.63;;;;;;;7.27;100.00;99274.09;5029728;28;20048;-77
2022/05/29 02:12:39;;;;;;;5.05;3.25;;;;;;;7.25;100.00;99281.13;5029140;28;20490;-77
2022/05/29 02:15:14;;;;;;;9.50;3.63;;;;;;;7.18;100.00;99283.09;5029290;28;20452;-77
2022/05/29 02:17:45;;;;;;;8.38;3.35;;;;;;;7.09;100.00;99275.66;5029074;28;20041;-77
2022/05/29 02:20:18;;;;;;;5.90;4.00;;;;;;;7.06;100.00;99280.97;5028986;28;20041;-77
2022/05/29 02:22:45;;;;;;;7.05;3.50;;;;;;;7.06;100.00;99288.72;5012655;28;20676;-77
2022/05/29 02:25:12;;;;;;;7.60;4.20;;;;;;;7.06;100.00;99295.66;5029591;28;20121;-77
2022/05/29 02:27:53;;;;;;;5.55;3.75;;;;;;;6.98;100.00;99289.00;5030271;28;20108;-77
2022/05/29 02:30:24;;;;;;;5.10;3.55;;;;;;;6.94;100.00;99274.50;5013495;28;20191;-77
2022/05/29 02:33:01;;;;;;;7.22;3.92;;;;;;;6.86;100.00;99265.34;5031757;28;20029;-77
2022/05/29 02:35:39;;;;;;;7.13;3.33;;;;;;;6.91;100.00;99276.34;5031283;28;20026;-77
2022/05/29 02:38:28;;;;;;;9.15;4.30;;;;;;;6.81;100.00;99278.44;5013867;28;20071;-77
2022/05/29 02:41:09;;;;;;;6.60;3.80;;;;;;;6.73;100.00;99270.97;5013724;28;20025;-77
2022/05/29 02:43:53;;;;;;;7.90;4.13;;;;;;;6.77;100.00;99281.22;5031635;28;20033;-77
2022/05/29 02:46:37;;;;;;;6.85;3.40;;;;;;;6.75;100.00;99289.88;5029864;28;20045;-77
2022/05/29 02:49:24;;;;;;;10.77;4.07;;;;;;;6.73;100.00;99296.00;5031519;28;20037;-77
2022/05/29 02:51:54;;;;;;;6.05;3.28;;;;;;;6.69;100.00;99297.84;5035691;28;20038;-77
2022/05/29 02:54:25;;;;;;;5.22;3.03;;;;;;;6.61;100.00;99284.34;5035006;28;20025;-77
2022/05/29 02:56:55;;;;;;;7.55;4.10;;;;;;;6.58;100.00;99281.91;5035212;28;20057;-77
2022/05/29 02:59:23;;;;;;;7.40;3.97;;;;;;;6.63;100.00;99300.69;5017099;28;20032;-77
2022/05/29 03:02:07;;;;;;;7.15;3.90;;;;;;;6.64;100.00;99298.94;5035128;28;20100;-77
2022/05/29 03:04:42;;;;;;;7.20;4.25;;;;;;;6.58;100.00;99292.25;5035097;28;20025;-77
2022/05/29 03:07:19;;;;;;;7.32;3.92;;;;;;;6.61;100.00;99296.44;5035185;28;20101;-77
2022/05/29 03:09:53;;;;;;;6.80;3.63;;;;;;;6.63;100.00;99305.84;5035102;28;20021;-76
2022/05/29 03:12:53;;;;;;;9.18;3.78;;;;;;;6.59;100.00;99308.59;5034698;28;20447;-77
2022/05/29 03:15:34;;;;;;;7.55;3.90;;;;;;;6.62;100.00;99316.28;5034745;28;20100;-76
2022/05/29 03:18:24;;;;;;;6.38;3.53;;;;;;;6.64;100.00;99306.69;5034780;28;20398;-79
2022/05/29 03:21:21;;;;;;;8.50;3.95;;;;;;;6.65;100.00;99310.97;5034845;28;20033;-77
2022/05/29 03:24:01;;;;;;;7.57;3.80;;;;;;;6.65;100.00;99305.78;5035122;28;20032;-77
2022/05/29 03:26:39;;;;;;;7.15;3.97;;;;;;;6.61;100.00;99301.63;5034485;28;20022;-77
2022/05/29 03:29:12;;;;;;;8.10;4.15;;;;;;;6.67;100.00;99306.59;5034833;28;20087;-77
2022/05/29 03:31:40;;;;;;;6.13;3.88;;;;;;;6.70;100.00;99309.03;5016612;28;20026;-77
2022/05/29 03:34:08;;;;;;;7.75;4.20;;;;;;;6.68;100.00;99293.59;5016800;28;20075;-77
2022/05/29 03:36:34;;;;;;;8.23;4.10;;;;;;;6.80;100.00;99307.00;5016475;28;20018;-77
2022/05/29 03:38:59;;;;;;;5.93;3.95;;;;;;;6.85;100.00;99312.84;5034603;28;20038;-79
2022/05/29 03:41:31;;;;;;;5.10;4.10;;;;;;;6.92;100.00;99314.31;5034032;28;20039;-79
2022/05/29 03:43:56;;;;;;;9.95;4.75;;;;;;;6.92;100.00;99296.19;5034500;28;20025;-79
2022/05/29 03:46:22;;;;;;;6.28;3.92;;;;;;;6.95;100.00;99290.88;5033921;28;20112;-79
2022/05/29 03:48:47;;;;;;;9.32;4.90;;;;;;;7.05;100.00;99291.38;5034508;28;20028;-79
2022/05/29 03:51:13;;;;;;;5.70;4.03;;;;;;;7.17;100.00;99289.19;5034452;28;20423;-78
2022/05/29 03:53:38;;;;;;;8.25;4.57;;;;;;;7.29;100.00;99289.59;5033799;28;20095;-79
2022/05/29 03:56:04;;;;;;;8.40;4.07;;;;;;;7.45;100.00;99294.09;5034317;28;20036;-79
2022/05/29 03:58:30;;;;;;;6.05;4.20;;;;;;;7.57;100.00;99294.53;5033947;28;20116;-79
2022/05/29 04:00:55;;;;;;;9.43;5.18;;;;;;;7.66;100.00;99279.44;5033095;28;20105;-79
2022/05/29 04:03:21;;;;;;;9.20;4.60;;;;;;;7.88;100.00;99279.44;5015714;28;20500;-78
2022/05/29 04:05:46;;;;;;;7.65;4.13;;;;;;;8.22;100.00;99286.63;5033968;28;20022;-79
2022/05/29 04:13:43;;;;;;;5.72;4.05;;;;;;;10.67;100.00;99293.19;5033571;28;20044;-79
2022/05/29 04:16:09;;;;;;;8.57;4.18;;;;;;;12.46;100.00;99288.31;5034041;28;20037;-79
2022/05/29 04:18:35;;;;;;;7.30;3.85;;;;;;;14.30;90.95;99287.06;5015715;28;20484;-79
2022/05/29 04:21:00;;;;;;;5.95;3.97;;;;;;;15.68;82.58;99288.75;5033539;28;20518;-79
2022/05/29 04:23:26;;;;;;;7.13;4.15;;;;;;;16.02;77.14;99275.75;5033959;28;20387;-79
2022/05/29 04:25:51;;;;;;;5.63;3.58;;;;;;;15.45;77.94;99293.00;5033662;28;20087;-79
2022/05/29 04:28:17;;;;;;;7.65;3.92;;;;;;;14.86;80.21;99292.00;5015792;28;20498;-79
2022/05/29 04:30:43;;;;;;;5.10;3.40;;;;;;;14.45;82.35;99285.19;5033244;28;20036;-79
2022/05/29 04:33:09;;;;;;;7.20;3.90;;;;;;;14.41;83.13;99289.81;5032016;28;20222;-79
2022/05/29 04:35:41;;;;;;;8.90;3.45;;;;;;;14.58;82.43;99283.44;5033017;28;20029;-80
2022/05/29 04:38:08;;;;;;;6.65;3.90;;;;;;;15.43;79.61;99288.81;5033419;28;20025;-79
2022/05/29 04:40:36;;;;;;;7.38;3.28;;;;;;;17.13;73.43;99284.69;5033092;28;20036;-79
2022/05/29 04:43:02;;;;;;;7.78;3.45;;;;;;;18.95;66.23;99273.97;5015498;28;20026;-79
2022/05/29 04:45:28;;;;;;;4.85;3.10;;;;;;;20.19;60.77;99286.63;5014953;28;20490;-79
2022/05/29 04:47:53;;;;;;;7.22;3.05;;;;;;;20.20;57.88;99283.00;5033056;28;20072;-79
2022/05/29 04:50:19;;;;;;;5.35;3.22;;;;;;;19.23;59.01;99275.03;5015520;28;20399;-79
2022/05/29 04:52:45;;;;;;;6.07;3.15;;;;;;;18.33;62.46;99286.28;5032978;28;20048;-79
2022/05/29 04:55:10;;;;;;;8.32;2.92;;;;;;;17.82;64.93;99283.56;5033083;28;20064;-79
2022/05/29 04:57:36;;;;;;;5.63;3.35;;;;;;;17.58;66.37;99275.84;5015036;28;20026;-78
2022/05/29 05:00:03;;;;;;;6.32;2.90;;;;;;;17.54;65.76;99277.91;5010424;28;20229;-79
2022/05/29 05:02:29;;;;;;;5.95;2.78;;;;;;;18.25;64.05;99267.66;5010373;28;20108;-79
2022/05/29 05:04:54;;;;;;;6.93;3.08;;;;;;;20.21;57.95;99271.44;5010667;28;20042;-78
2022/05/29 05:07:20;;;;;;;6.65;2.65;;;;;;;22.32;50.79;99269.53;5010663;28;20511;-79
2022/05/29 05:09:46;;;;;;;5.05;2.58;;;;;;;23.54;44.26;99263.91;5010383;28;20038;-79
2022/05/29 05:12:11;;;;;;;7.57;2.80;;;;;;;22.96;43.85;99270.06;5010270;28;20042;-79
2022/05/29 05:14:37;;;;;;;5.10;2.60;;;;;;;21.63;46.70;99259.69;5010285;28;20451;-78
2022/05/29 05:17:02;;;;;;;9.35;3.08;;;;;;;20.70;49.17;99268.72;5010198;28;20060;-79
2022/05/29 05:19:28;;;;;;;6.22;2.78;;;;;;;20.05;51.63;99271.19;5010255;28;20038;-79
2022/05/29 05:21:53;;;;;;;6.25;2.95;;;;;;;19.70;52.81;99283.19;5010354;28;20033;-79
2022/05/29 05:24:19;;;;;;;6.60;2.78;;;;;;;19.89;52.56;99274.44;5010372;28;20124;-79
2022/05/29 05:26:45;;;;;;;5.40;2.70;;;;;;;21.22;49.56;99288.38;5010117;28;20030;-78
2022/05/29 05:29:12;;;;;;;6.30;2.50;;;;;;;23.31;44.19;99281.50;4993748;28;20079;-79
2022/05/29 05:31:37;;;;;;;5.60;2.85;;;;;;;25.10;39.21;99267.25;5009957;28;20034;-79
2022/05/29 05:34:03;;;;;;;6.40;2.78;;;;;;;25.28;37.50;99275.84;5010316;28;20034;-79
2022/05/29 05:36:29;;;;;;;5.55;2.70;;;;;;;24.06;38.56;99270.78;5012034;28;20034;-79
2022/05/29 05:38:55;;;;;;;8.07;2.53;;;;;;;22.77;41.20;99273.78;5032391;28;20040;-78
2022/05/29 05:41:21;;;;;;;8.57;3.00;;;;;;;21.91;43.82;99268.38;5031996;28;20029;-78
2022/05/29 05:43:47;;;;;;;5.30;2.50;;;;;;;21.53;45.07;99266.84;5031991;28;20030;-78
2022/05/29 05:46:15;;;;;;;5.10;2.38;;;;;;;21.39;45.00;99276.16;5031994;28;20064;-78
2022/05/29 05:48:40;;;;;;;6.60;2.80;;;;;;;21.54;45.07;99266.72;5031772;28;20025;-79
2022/05/29 05:51:07;;;;;;;4.78;2.85;;;;;;;21.73;44.26;99281.63;5032008;28;20112;-79
2022/05/29 05:53:34;;;;;;;5.88;2.60;;;;;;;21.62;44.25;99274.75;5031713;28;20116;-79
2022/05/29 05:56:12;;;;;;;9.27;2.90;;;;;;;21.62;44.96;99280.06;5031763;28;20475;-78
2022/05/29 05:58:43;;;;;;;4.40;2.80;;;;;;;21.71;44.64;99280.13;5031499;28;20064;-79
2022/05/29 06:01:11;;;;;;;7.20;3.08;;;;;;;21.82;44.34;99286.03;5031864;28;20025;-79
2022/05/29 06:03:37;;;;;;;9.65;2.78;;;;;;;21.90;43.95;99293.22;5031668;28;20029;-78
2022/05/29 06:06:03;;;;;;;7.95;3.13;;;;;;;22.01;43.38;99293.00;5014069;28;20025;-79
2022/05/29 06:08:29;;;;;;;7.30;2.63;;;;;;;22.19;43.20;99287.69;5031770;28;20109;-78
2022/05/29 06:10:55;;;;;;;4.93;2.65;;;;;;;22.36;42.79;99284.16;5031631;28;20030;-80
2022/05/29 06:13:20;;;;;;;5.07;2.70;;;;;;;22.42;42.87;99288.84;5031466;28;20049;-79
2022/05/29 06:15:46;;;;;;;7.05;2.75;;;;;;;22.64;42.76;99298.09;5031552;28;20037;-78
2022/05/29 06:18:16;;;;;;;5.82;2.40;;;;;;;22.89;41.52;99303.56;5031705;28;20032;-79
2022/05/29 06:20:42;;;;;;;8.97;3.17;;;;;;;23.13;41.57;99297.53;5031377;28;20502;-79
2022/05/29 06:23:08;;;;;;;7.50;2.42;;;;;;;23.31;40.51;99313.38;5031909;28;20304;-79
2022/05/29 06:25:33;;;;;;;7.38;2.97;;;;;;;23.47;40.81;99312.56;5033576;28;20108;-77
2022/05/29 06:28:01;;;;;;;5.55;2.60;;;;;;;23.70;39.61;99316.31;5035830;28;20617;-77
2022/05/29 06:30:28;;;;;;;4.88;2.30;;;;;;;25.49;38.19;99306.34;5035755;28;20356;-76
2022/05/29 06:32:53;;;;;;;7.10;2.45;;;;;;;28.61;32.38;99297.97;5035667;28;20037;-77
2022/05/29 06:35:18;;;;;;;3.42;2.15;;;;;;;31.98;27.14;99315.19;5035537;28;20390;-77
2022/05/29 06:37:44;;;;;;;6.85;2.75;;;;;;;34.64;23.07;99301.91;5017442;28;20399;-77
2022/05/29 06:40:12;;;;;;;5.53;2.35;;;;;;;36.84;20.34;99293.13;5035311;28;20029;-77
2022/05/29 06:42:38;;;;;;;5.43;2.13;;;;;;;38.55;18.54;99295.34;5035090;28;20034;-76
2022/05/29 06:45:04;;;;;;;6.78;2.88;;;;;;;39.93;17.05;99293.91;5035333;28;20021;-77
2022/05/29 06:47:30;;;;;;;3.97;1.92;;;;;;;41.17;15.47;99290.66;5017479;28;20033;-77
2022/05/29 06:49:56;;;;;;;5.30;2.58;;;;;;;41.82;14.08;99296.84;5017522;28;20045;-77
2022/05/29 06:52:21;;;;;;;5.00;2.53;;;;;;;42.27;13.88;99297.59;5035233;28;20022;-77
2022/05/29 06:54:47;;;;;;;5.50;2.95;;;;;;;42.95;13.61;99296.56;5034949;28;20167;-77
2022/05/29 06:57:13;;;;;;;9.20;3.88;;;;;;;43.69;13.13;99299.66;5034936;28;20108;-77
2022/05/29 07:08:01;;;;;;;5.75;2.40;;;;;;;45.68;11.26;99284.81;5034934;28;20099;-77
2022/05/29 07:10:33;;;;;;;4.70;2.42;;;;;;;45.87;10.83;99286.56;5017123;28;20482;-77
2022/05/29 07:13:01;;;;;;;4.55;2.63;;;;;;;46.04;10.64;99279.22;5034747;28;20084;-77
2022/05/29 07:15:26;;;;;;;6.28;2.60;;;;;;;46.46;10.40;99281.69;5034929;28;20022;-77
2022/05/29 07:17:52;;;;;;;7.20;2.63;;;;;;;46.95;9.76;99279.81;5034515;28;20028;-77
2022/05/29 07:20:17;;;;;;;6.82;2.30;;;;;;;47.08;9.70;99283.53;5034719;28;20025;-78
2022/05/29 07:22:43;;;;;;;7.38;2.10;;;;;;;47.28;9.70;99273.81;5034518;28;20025;-75
2022/05/29 07:25:11;;;;;;;5.72;2.25;;;;;;;47.41;9.32;99273.69;5034958;28;20029;-78
2022/05/29 07:27:37;;;;;;;5.43;2.10;;;;;;;47.52;9.51;99276.91;5034535;28;20116;-77
2022/05/29 07:30:03;;;;;;;7.32;2.38;;;;;;;47.71;9.15;99271.09;5034602;28;20100;-78
2022/05/29 07:32:30;;;;;;;7.45;2.30;;;;;;;48.01;8.54;99271.19;5034402;28;20613;-77
2022/05/29 07:34:56;;;;;;;3.97;1.85;;;;;;;48.02;8.79;99270.03;5034765;28;20083;-77
2022/05/29 07:37:23;;;;;;;5.10;2.25;;;;;;;48.31;8.59;99258.25;5034283;28;20044;-77
2022/05/29 07:39:51;;;;;;;7.70;3.00;;;;;;;48.25;9.02;99257.63;5034298;28;20065;-78
2022/05/29 07:45:02;;;;;;;7.00;2.58;;;;;;;48.41;8.99;99268.94;5034336;28;20044;-78
2022/05/29 07:47:28;;;;;;;6.93;2.60;;;;;;;48.73;8.91;99273.00;5034512;28;20025;-77
2022/05/29 07:49:56;;;;;;;4.97;2.42;;;;;;;48.76;8.78;99274.31;5034028;28;20036;-77
2022/05/29 07:52:21;;;;;;;4.28;2.42;;;;;;;48.88;8.21;99277.16;5034205;28;20386;-78
2022/05/29 07:54:47;;;;;;;4.90;2.30;;;;;;;49.15;7.79;99264.81;5034030;28;20026;-78
2022/05/29 07:57:13;;;;;;;5.95;2.25;;;;;;;48.91;7.80;99265.44;5034146;28;20025;-78
2022/05/29 07:59:38;;;;;;;4.82;2.20;;;;;;;48.54;7.83;99248.56;5028667;28;20037;-77
2022/05/29 08:02:04;;;;;;;4.05;2.13;;;;;;;47.36;8.17;99260.03;5014277;28;20033;-77
2022/05/29 08:04:29;;;;;;;3.22;1.98;;;;;;;41.76;10.50;99247.91;5014175;28;20471;-77
2022/05/29 08:06:55;;;;;;;3.58;1.98;;;;;;;38.43;12.66;99246.56;5013981;28;20033;-77
2022/05/29 08:09:21;;;;;;;4.90;2.22;;;;;;;38.60;13.00;99240.94;5014061;28;20038;-77
2022/05/29 08:11:47;;;;;;;5.03;2.60;;;;;;;40.90;11.80;99244.63;5013716;28;20063;-76
2022/05/29 08:14:12;;;;;;;3.72;1.98;;;;;;;38.74;12.62;99253.00;5029565;28;20053;-76
2022/05/29 08:16:39;;;;;;;5.68;2.08;;;;;;;34.75;14.90;99251.53;5033200;28;20387;-77
2022/05/29 08:19:07;;;;;;;5.93;2.28;;;;;;;31.70;17.59;99232.06;5033639;28;20538;-78
2022/05/29 08:21:33;;;;;;;5.07;2.28;;;;;;;29.60;20.09;99253.88;5033630;28;20478;-77
2022/05/29 08:32:10;;;;;;;5.20;2.08;;;;;;;24.34;26.35;99236.66;5033422;28;20040;-77
2022/05/29 08:34:35;;;;;;;2.70;1.77;;;;;;;23.99;27.30;99238.72;5033136;28;20025;-77
2022/05/29 08:37:01;;;;;;;5.57;1.83;;;;;;;23.71;27.89;99246.19;5033212;28;20021;-77
2022/05/29 08:39:27;;;;;;;4.72;1.83;;;;;;;23.54;27.46;99242.66;5015378;28;20069;-77
2022/05/29 08:41:53;;;;;;;3.40;1.60;;;;;;;23.38;28.23;99245.28;5033146;28;20072;-77
2022/05/29 08:44:30;;;;;;;3.08;1.50;;;;;;;23.09;27.85;99229.78;5033246;28;20107;-77
2022/05/29 08:47:02;;;;;;;5.70;1.95;;;;;;;22.86;28.64;99250.75;5032332;28;20090;-77
2022/05/29 08:49:31;;;;;;;3.80;1.80;;;;;;;22.41;29.39;99234.09;5032670;28;20047;-77
2022/05/29 08:52:22;;;;;;;2.80;1.95;;;;;;;22.12;30.01;99241.50;5033021;28;20367;-78
2022/05/29 08:54:50;;;;;;;;;;;;;;;21.99;30.81;99251.69;5033590;28;20036;-77
2022/05/29 08:57:34;;;;;;;5.38;1.90;;;;;;;22.07;31.02;99246.44;5032978;28;19913;-78
2022/05/29 09:00:04;;;;;;;4.78;2.30;;;;;;;22.14;30.73;99248.38;5032563;28;20037;-77
2022/05/29 09:02:47;;;;;;;3.30;1.98;;;;;;;21.78;31.84;99222.84;5032807;28;20021;-78
2022/05/29 09:05:25;;;;;;;5.20;1.95;;;;;;;21.65;31.50;99252.41;5033053;28;20076;-78
2022/05/29 09:07:53;;;;;;;5.43;2.35;;;;;;;21.37;30.91;99233.94;5032455;28;20032;-77
2022/05/29 09:10:28;;;;;;;5.68;2.33;;;;;;;21.31;30.53;99242.44;5032585;28;20022;-78
2022/05/29 09:12:54;;;;;;;7.22;2.20;;;;;;;21.22;31.51;99248.63;5031295;28;20029;-77
2022/05/29 09:15:41;;;;;;;5.80;1.92;;;;;;;21.27;32.13;99241.06;5032645;28;20498;-77
2022/05/29 09:18:31;;;;;;;7.00;2.70;;;;;;;21.53;31.02;99237.72;5032739;28;20103;-77
2022/05/29 09:21:08;;;;;;;5.53;2.00;;;;;;;21.47;31.53;99223.25;5031893;28;20049;-77
2022/05/29 09:23:42;;;;;;;5.63;2.30;;;;;;;21.34;31.94;99236.06;5032699;28;20094;-77
2022/05/29 09:26:14;;;;;;;7.65;2.40;;;;;;;21.04;32.59;99238.03;5032568;28;20021;-77
2022/05/29 09:28:41;;;;;;;3.97;1.90;;;;;;;20.89;33.35;99240.31;5032140;28;20090;-78
2022/05/29 09:31:20;;;;;;;4.10;1.95;;;;;;;20.72;33.76;99233.16;5032089;28;20466;-77
2022/05/29 09:33:47;;;;;;;4.18;2.25;;;;;;;20.59;34.27;99243.25;5032250;28;20036;-77
2022/05/29 09:36:25;;;;;;;6.10;2.20;;;;;;;20.21;34.71;99226.50;5032396;28;20021;-78
2022/05/29 09:38:53;;;;;;;6.20;1.85;;;;;;;20.12;35.08;99237.94;5032080;28;20036;-77
2022/05/29 09:41:29;;;;;;;5.43;2.13;;;;;;;19.97;35.01;99220.84;5014421;28;20026;-77
2022/05/29 09:44:13;;;;;;;3.80;2.20;;;;;;;20.20;35.11;99232.78;5032176;28;20043;-78
2022/05/29 09:46:52;;;;;;;5.78;2.03;;;;;;;20.47;34.89;99233.78;5031798;28;20045;-77
2022/05/29 09:52:34;;;;;;;4.63;2.20;;;;;;;20.80;32.41;99225.31;5031971;28;20036;-78
2022/05/29 09:55:06;;;;;;;5.85;2.10;;;;;;;20.72;33.00;99230.53;5031836;28;20033;-78
2022/05/29 09:57:42;;;;;;;3.50;1.95;;;;;;;20.64;32.73;99222.47;5031938;28;20113;-76
2022/05/29 10:00:25;;;;;;;5.25;1.90;;;;;;;20.61;33.79;99220.97;5031037;28;20021;-78
2022/05/29 10:02:51;;;;;;;6.63;1.70;;;;;;;20.61;33.12;99225.44;5031901;28;20104;-76
2022/05/29 10:05:35;;;;;;;5.72;2.15;;;;;;;20.61;32.90;99226.25;5031839;28;20133;-78
2022/05/29 10:08:18;;;;;;;3.40;1.90;;;;;;;20.58;32.97;99220.44;5031677;28;20041;-77
2022/05/29 10:10:47;;;;;;;4.25;1.67;;;;;;;20.40;31.19;99204.47;5031353;28;20475;-78
2022/05/29 10:13:40;;;;;;;3.85;2.10;;;;;;;20.27;32.43;99222.44;5031660;28;20104;-78
2022/05/29 10:16:07;;;;;;;5.18;1.95;;;;;;;20.06;33.17;99218.19;5031598;28;20029;-78
2022/05/29 10:18:38;;;;;;;7.47;2.13;;;;;;;19.90;34.42;99223.22;5031910;28;20036;-78
2022/05/29 10:21:21;;;;;;;6.07;2.38;;;;;;;20.05;34.99;99219.16;5012986;28;20049;-78
2022/05/29 10:23:50;;;;;;;5.85;2.30;;;;;;;20.27;34.13;99223.28;5031742;28;20059;-78
2022/05/29 10:26:34;;;;;;;5.68;1.95;;;;;;;20.28;34.62;99230.25;5031810;28;20032;-78
2022/05/29 10:29:11;;;;;;;3.80;2.00;;;;;;;20.30;34.76;99224.78;5031627;28;20112;-78
2022/05/29 10:31:39;;;;;;;6.03;2.38;;;;;;;20.25;33.27;99221.75;5031498;28;20057;-78
2022/05/29 10:34:15;;;;;;;3.05;1.77;;;;;;;20.47;34.85;99224.03;5031531;28;20025;-78
2022/05/29 10:36:40;;;;;;;3.97;1.77;;;;;;;20.60;33.84;99224.56;5030354;28;20032;-78
2022/05/29 10:39:18;;;;;;;3.78;1.85;;;;;;;20.54;32.99;99225.16;5030048;28;20033;-78
2022/05/29 10:41:44;;;;;;;3.42;1.63;;;;;;;20.44;32.44;99221.72;5031245;28;20021;-78
2022/05/29 10:44:32;;;;;;;4.75;2.08;;;;;;;20.30;32.99;99230.91;5031404;28;20052;-78
2022/05/29 10:47:16;;;;;;;6.75;1.83;;;;;;;19.99;33.63;99221.53;5031100;28;20402;-78
2022/05/29 10:50:11;;;;;;;3.78;1.88;;;;;;;19.86;34.57;99243.81;5031377;28;20496;-78
2022/05/29 10:53:01;;;;;;;3.72;2.20;;;;;;;19.87;34.78;99247.28;4950937;29;20043;-78
2022/05/29 10:55:40;;;;;;;2.97;2.20;;;;;;;20.00;35.22;99242.53;4950999;29;20396;-78
2022/05/29 10:58:21;;;;;;;3.08;1.83;;;;;;;20.22;35.27;99228.16;4950813;29;20043;-78
2022/05/29 11:03:17;;;;;;;4.32;2.38;;;;;;;20.41;34.40;99230.75;4950697;29;20119;-78
2022/05/29 11:04:12;;;;;;;4.60;2.25;;;;;;;20.47;32.45;99215.28;4950480;29;20098;-78
2022/05/29 11:06:58;;;;;;;4.15;2.22;;;;;;;20.46;31.70;99209.16;4951024;29;20116;-77
2022/05/29 11:09:32;;;;;;;5.05;1.85;;;;;;;20.45;31.73;99210.16;4950909;29;20044;-77
2022/05/29 11:12:19;;;;;;;3.60;1.83;;;;;;;20.34;31.90;99195.28;4953127;28;20035;-77
2022/05/29 11:15:09;;;;;;;3.67;1.95;;;;;;;20.44;32.05;99198.72;4954453;29;20406;-77
2022/05/29 11:18:08;;;;;;;3.97;1.95;;;;;;;20.50;31.76;99202.63;4954310;29;20043;-78
2022/05/29 11:21:05;;;;;;;4.20;1.88;;;;;;;20.60;32.57;99203.41;4952698;29;20043;-77
2022/05/29 11:23:31;;;;;;;6.03;1.98;;;;;;;20.67;33.78;99206.31;4935125;29;20055;-77
2022/05/29 11:26:08;;;;;;;3.25;1.98;;;;;;;20.76;33.02;99204.59;4934857;29;20035;-77
2022/05/29 11:28:52;;;;;;;3.65;2.20;;;;;;;20.65;31.76;99185.31;4926940;28;20036;-77
2022/05/29 11:31:42;;;;;;;4.18;2.03;;;;;;;20.72;33.00;99195.28;5034596;28;20061;-77
2022/05/29 11:34:32;;;;;;;3.75;1.95;;;;;;;20.79;31.89;99204.31;5034254;28;20079;-77
2022/05/29 11:37:22;;;;;;;3.70;1.52;;;;;;;20.97;31.91;99189.28;5034285;28;20037;-77
2022/05/29 11:39:54;;;;;;;3.75;1.90;;;;;;;21.00;30.72;99178.41;5034644;28;20029;-77
2022/05/29 11:42:31;;;;;;;2.88;1.80;;;;;;;20.83;30.43;99172.09;5034465;28;20072;-77
2022/05/29 11:45:10;;;;;;;4.20;1.85;;;;;;;20.76;31.22;99162.25;5034123;28;20031;-78
2022/05/29 11:53:38;;;;;;;3.13;1.80;;;;;;;21.04;31.39;99155.13;5034229;28;20045;-77
2022/05/29 11:56:10;;;;;;;4.53;1.98;;;;;;;21.11;30.85;99140.28;5033955;28;20506;-77
2022/05/29 11:58:47;;;;;;;3.97;2.15;;;;;;;21.05;31.27;99143.53;5034187;28;20483;-77
2022/05/29 12:01:19;;;;;;;3.38;2.10;;;;;;;20.99;31.65;99160.88;5034238;28;20029;-77
2022/05/29 12:03:56;;;;;;;4.95;1.85;;;;;;;20.96;32.05;99147.09;5034185;28;20075;-77
2022/05/29 12:06:34;;;;;;;6.15;2.17;;;;;;;20.61;31.16;99138.13;5034093;28;20037;-77
2022/05/29 12:09:37;;;;;;;5.82;2.13;;;;;;;20.46;31.92;99152.78;5033784;28;20418;-77
2022/05/29 12:12:32;;;;;;;4.88;2.08;;;;;;;20.36;32.32;99140.44;4936672;29;20035;-77
2022/05/29 12:15:06;;;;;;;5.07;1.98;;;;;;;20.45;31.87;99146.66;4953220;29;20031;-77
2022/05/29 12:17:44;;;;;;;5.07;1.73;;;;;;;20.53;32.15;99145.97;4953231;29;20215;-77
2022/05/29 12:20:19;;;;;;;2.65;1.67;;;;;;;20.52;32.97;99139.84;4953037;29;20035;-77
2022/05/29 12:23:08;;;;;;;3.58;1.83;;;;;;;20.38;33.27;99135.81;4952200;28;20429;-77
2022/05/29 12:25:37;;;;;;;3.47;1.70;;;;;;;20.24;32.90;99146.06;4953275;29;20034;-77
2022/05/29 12:28:08;;;;;;;4.15;2.25;;;;;;;20.20;33.20;99148.16;4952893;29;20539;-77
2022/05/29 12:30:41;;;;;;;3.30;1.60;;;;;;;20.17;33.08;99137.84;4952751;29;20036;-77
2022/05/29 12:33:20;;;;;;;4.57;1.60;;;;;;;20.22;32.38;99146.19;4951595;29;20039;-77